createdAt,value
2023-01-30T00:00:17.375Z,15.70
2023-01-30T00:01:06.940Z,15.02
2023-01-30T00:01:54.119Z,15.55
2023-01-30T00:02:41.378Z,14.85
2023-01-30T00:03:28.559Z,16.35
2023-01-30T00:04:17.315Z,16.27
2023-01-30T00:05:04.979Z,15.38
2023-01-30T00:05:52.398Z,17.00
2023-01-30T00:06:40.983Z,15.65
2023-01-30T00:07:28.014Z,16.90
2023-01-30T00:08:15.150Z,16.37
2023-01-30T00:09:02.435Z,15.68
2023-01-30T00:09:49.370Z,15.88
2023-01-30T00:10:36.406Z,15.38
2023-01-30T00:11:23.660Z,16.00
2023-01-30T00:12:10.674Z,16.58
2023-01-30T00:12:57.724Z,15.43
2023-01-30T00:13:44.859Z,15.88
2023-01-30T00:14:31.975Z,15.88
2023-01-30T00:15:19.433Z,16.23
2023-01-30T00:16:06.813Z,15.65
2023-01-30T00:16:53.786Z,16.87
2023-01-30T00:17:40.882Z,14.75
2023-01-30T00:18:28.068Z,17.42
2023-01-30T00:19:15.155Z,16.17
2023-01-30T00:20:02.340Z,16.17
2023-01-30T00:20:49.440Z,15.75
2023-01-30T00:21:36.519Z,16.55
2023-01-30T00:22:23.796Z,15.55
2023-01-30T00:23:10.727Z,15.80
2023-01-30T00:24:00.136Z,15.95
2023-01-30T00:24:47.583Z,15.50
2023-01-30T00:25:35.225Z,16.00
2023-01-30T00:26:22.460Z,15.90
2023-01-30T00:27:09.548Z,17.08
2023-01-30T00:27:56.914Z,16.27
2023-01-30T00:28:43.966Z,15.70
2023-01-30T00:29:31.080Z,16.85
2023-01-30T00:30:18.464Z,17.23
2023-01-30T00:31:06.115Z,15.35
2023-01-30T00:31:53.372Z,16.62
2023-01-30T00:32:40.357Z,15.80
2023-01-30T00:33:28.137Z,15.55
2023-01-30T00:34:15.214Z,16.75
2023-01-30T00:35:02.233Z,16.87
2023-01-30T00:35:51.076Z,15.65
2023-01-30T00:36:38.081Z,16.87
2023-01-30T00:37:25.348Z,16.00
2023-01-30T00:38:12.536Z,16.23
2023-01-30T00:38:59.560Z,17.25
2023-01-30T00:39:46.590Z,16.50
2023-01-30T00:40:33.692Z,15.27
2023-01-30T00:41:20.713Z,16.05
2023-01-30T00:42:26.246Z,15.80
2023-01-30T00:43:34.003Z,15.48
2023-01-30T00:44:39.627Z,15.40
2023-01-30T00:45:45.209Z,15.30
2023-01-30T00:46:52.562Z,15.52
2023-01-30T00:47:39.667Z,15.85
2023-01-30T00:48:26.852Z,16.02
2023-01-30T00:49:14.311Z,15.85
2023-01-30T00:50:01.436Z,16.10
2023-01-30T00:50:48.645Z,17.73
2023-01-30T00:51:35.807Z,17.80
2023-01-30T00:52:23.011Z,16.87
2023-01-30T00:53:12.117Z,15.90
2023-01-30T00:53:59.141Z,16.83
2023-01-30T00:54:46.347Z,16.48
2023-01-30T00:55:33.343Z,16.70
2023-01-30T00:56:20.683Z,16.30
2023-01-30T00:57:07.661Z,16.48
2023-01-30T00:57:54.635Z,15.85
2023-01-30T00:58:41.791Z,17.52
2023-01-30T00:59:29.581Z,17.27
2023-01-30T01:00:18.214Z,16.33
2023-01-30T01:01:05.284Z,17.08
2023-01-30T01:01:52.513Z,16.42
2023-01-30T01:02:39.677Z,16.92
2023-01-30T01:03:26.632Z,16.67
2023-01-30T01:04:13.870Z,16.33
2023-01-30T01:05:00.823Z,15.23
2023-01-30T01:05:48.233Z,17.42
2023-01-30T01:06:35.387Z,16.05
2023-01-30T01:07:22.453Z,15.40
2023-01-30T01:08:10.813Z,16.05
2023-01-30T01:08:57.864Z,16.37
2023-01-30T01:09:44.806Z,16.77
2023-01-30T01:10:32.248Z,15.77
2023-01-30T01:11:24.945Z,15.07
2023-01-30T01:12:12.153Z,15.95
2023-01-30T01:12:59.152Z,17.17
2023-01-30T01:13:46.330Z,16.05
2023-01-30T01:14:33.610Z,16.98
2023-01-30T01:15:22.722Z,16.40
2023-01-30T01:16:09.813Z,16.58
2023-01-30T01:16:56.938Z,16.35
2023-01-30T01:17:43.957Z,16.20
2023-01-30T01:18:31.113Z,17.02
2023-01-30T01:19:18.184Z,16.70
2023-01-30T01:20:06.202Z,15.82
2023-01-30T01:20:53.267Z,17.87
2023-01-30T01:21:40.317Z,15.95
2023-01-30T01:22:27.384Z,15.88
2023-01-30T01:23:14.367Z,17.60
2023-01-30T01:24:01.583Z,16.42
2023-01-30T01:24:48.750Z,16.98
2023-01-30T01:25:35.749Z,16.45
2023-01-30T01:26:22.834Z,16.55
2023-01-30T01:27:09.849Z,15.77
2023-01-30T01:27:56.833Z,16.48
2023-01-30T01:28:43.817Z,15.82
2023-01-30T01:29:30.812Z,15.75
2023-01-30T01:30:18.581Z,15.55
2023-01-30T01:31:13.106Z,16.35
2023-01-30T01:32:00.321Z,15.80
2023-01-30T01:32:47.355Z,16.25
2023-01-30T01:33:34.284Z,15.68
2023-01-30T01:34:21.320Z,15.75
2023-01-30T01:35:08.752Z,16.05
2023-01-30T01:35:57.020Z,14.95
2023-01-30T01:36:59.428Z,15.93
2023-01-30T01:37:47.017Z,15.43
2023-01-30T01:38:34.499Z,15.07
2023-01-30T01:39:21.783Z,16.48
2023-01-30T01:40:29.978Z,16.10
2023-01-30T01:41:18.964Z,16.37
2023-01-30T01:42:05.970Z,15.98
2023-01-30T01:42:53.115Z,14.73
2023-01-30T01:44:06.745Z,15.88
2023-01-30T01:45:04.814Z,16.98
2023-01-30T01:46:00.521Z,15.48
2023-01-30T01:46:55.142Z,15.40
2023-01-30T01:48:09.075Z,15.48
2023-01-30T01:48:58.280Z,14.65
2023-01-30T01:49:45.503Z,16.33
2023-01-30T01:50:41.236Z,15.63
2023-01-30T01:51:40.740Z,15.82
2023-01-30T01:52:27.928Z,16.30
2023-01-30T01:53:17.070Z,14.90
2023-01-30T01:54:10.518Z,15.80
2023-01-30T01:55:00.395Z,16.20
2023-01-30T01:55:49.651Z,12.27
2023-01-30T01:56:39.619Z,16.05
2023-01-30T01:57:40.382Z,16.35
2023-01-30T01:59:39.719Z,14.43
2023-01-30T02:00:27.059Z,15.07
2023-01-30T02:01:14.287Z,14.93
2023-01-30T02:02:06.607Z,15.63
2023-01-30T02:03:00.881Z,15.73
2023-01-30T02:03:51.464Z,15.38
2023-01-30T02:05:46.957Z,14.40
2023-01-30T02:06:34.007Z,14.82
2023-01-30T02:07:22.380Z,15.93
2023-01-30T02:08:18.849Z,15.23
2023-01-30T02:09:08.231Z,16.27
2023-01-30T02:09:55.736Z,15.00
2023-01-30T02:11:07.321Z,16.37
2023-01-30T02:11:57.707Z,16.27
2023-01-30T02:12:45.211Z,15.95
2023-01-30T02:13:32.945Z,15.55
2023-01-30T02:14:21.267Z,15.75
2023-01-30T02:15:08.647Z,16.67
2023-01-30T02:16:00.193Z,16.95
2023-01-30T02:16:47.247Z,16.50
2023-01-30T02:17:34.279Z,16.40
2023-01-30T02:18:21.724Z,16.90
2023-01-30T02:19:30.855Z,17.37
2023-01-30T02:20:45.860Z,14.98
2023-01-30T02:22:07.198Z,16.00
2023-01-30T02:23:31.245Z,14.18
2023-01-30T02:24:33.421Z,14.27
2023-01-30T02:25:41.739Z,15.25
2023-01-30T02:26:57.597Z,16.05
2023-01-30T02:28:05.960Z,15.77
2023-01-30T02:29:13.962Z,15.32
2023-01-30T02:30:16.193Z,14.23
2023-01-30T02:31:31.150Z,16.15
2023-01-30T02:32:26.885Z,15.20
2023-01-30T02:33:29.645Z,16.12
2023-01-30T02:34:36.170Z,16.33
2023-01-30T02:35:50.326Z,15.85
2023-01-30T02:37:30.208Z,14.87
2023-01-30T02:38:36.875Z,15.45
2023-01-30T02:39:39.036Z,14.52
2023-01-30T02:40:37.277Z,15.98
2023-01-30T02:41:36.400Z,15.40
2023-01-30T02:42:39.089Z,16.20
2023-01-30T02:43:55.144Z,15.45
2023-01-30T02:45:23.848Z,14.93
2023-01-30T02:46:30.711Z,14.27
2023-01-30T02:47:25.040Z,15.23
2023-01-30T02:48:20.360Z,15.75
2023-01-30T02:49:15.260Z,16.77
2023-01-30T02:50:29.980Z,14.95
2023-01-30T02:51:26.915Z,15.43
2023-01-30T02:52:15.828Z,15.57
2023-01-30T02:53:05.940Z,17.35
2023-01-30T02:53:53.800Z,17.27
2023-01-30T02:54:41.035Z,15.85
2023-01-30T02:55:29.451Z,16.60
2023-01-30T02:56:16.629Z,16.08
2023-01-30T02:57:03.718Z,17.15
2023-01-30T02:57:50.884Z,15.90
2023-01-30T02:58:44.548Z,16.92
2023-01-30T02:59:42.682Z,17.87
2023-01-30T03:00:44.549Z,16.70
2023-01-30T03:01:47.347Z,16.00
2023-01-30T03:03:11.265Z,16.87
2023-01-30T03:04:01.112Z,16.30
2023-01-30T03:05:03.185Z,16.12
2023-01-30T03:06:20.715Z,16.23
2023-01-30T03:07:49.396Z,16.12
2023-01-30T03:08:54.372Z,15.52
2023-01-30T03:10:38.825Z,14.23
2023-01-30T03:11:31.927Z,16.00
2023-01-30T03:12:42.005Z,15.68
2023-01-30T03:13:52.749Z,15.23
2023-01-30T03:14:42.935Z,15.45
2023-01-30T03:15:42.541Z,18.20
2023-01-30T03:16:39.138Z,17.65
2023-01-30T03:17:27.425Z,17.08
2023-01-30T03:18:14.772Z,17.95
2023-01-30T03:19:03.747Z,16.25
2023-01-30T03:19:52.185Z,17.55
2023-01-30T03:20:40.582Z,17.37
2023-01-30T03:21:27.635Z,17.65
2023-01-30T03:22:14.680Z,17.30
2023-01-30T03:23:01.744Z,19.05
2023-01-30T03:23:48.884Z,17.87
2023-01-30T03:24:36.094Z,17.65
2023-01-30T03:25:27.123Z,18.37
2023-01-30T03:26:21.542Z,18.45
2023-01-30T03:27:12.196Z,17.85
2023-01-30T03:28:49.274Z,16.52
2023-01-30T03:29:36.550Z,17.48
2023-01-30T03:30:25.719Z,17.37
2023-01-30T03:31:12.879Z,18.83
2023-01-30T03:32:00.225Z,17.87
2023-01-30T03:32:47.317Z,17.52
2023-01-30T03:33:34.226Z,17.87
2023-01-30T03:34:21.285Z,18.15
2023-01-30T03:35:08.671Z,18.80
2023-01-30T03:35:55.766Z,18.95
2023-01-30T03:36:42.915Z,19.08
2023-01-30T03:37:30.153Z,18.67
2023-01-30T03:38:18.477Z,18.80
2023-01-30T03:39:05.603Z,18.52
2023-01-30T03:39:52.589Z,18.50
2023-01-30T03:40:39.751Z,19.92
2023-01-30T03:41:26.704Z,18.40
2023-01-30T03:42:13.778Z,19.00
2023-01-30T03:43:00.858Z,20.02
2023-01-30T03:43:47.740Z,19.37
2023-01-30T03:44:34.793Z,18.62
2023-01-30T03:45:21.839Z,19.35
2023-01-30T03:46:08.961Z,20.23
2023-01-30T03:46:55.954Z,19.25
2023-01-30T03:47:42.940Z,19.83
2023-01-30T03:48:29.955Z,20.60
2023-01-30T03:49:16.945Z,20.85
2023-01-30T03:50:04.359Z,19.52
2023-01-30T03:50:51.377Z,20.08
2023-01-30T03:51:38.390Z,19.60
2023-01-30T03:52:25.469Z,19.05
2023-01-30T03:53:12.538Z,19.90
2023-01-30T03:53:59.562Z,19.90
2023-01-30T03:54:46.752Z,21.17
2023-01-30T03:55:33.761Z,22.15
2023-01-30T03:56:20.869Z,20.17
2023-01-30T03:57:08.164Z,21.12
2023-01-30T03:57:57.111Z,19.27
2023-01-30T03:58:44.138Z,20.02
2023-01-30T03:59:31.180Z,19.35
2023-01-30T04:00:21.348Z,19.20
2023-01-30T04:01:08.408Z,19.23
2023-01-30T04:01:55.436Z,19.48
2023-01-30T04:02:42.707Z,20.85
2023-01-30T04:03:29.845Z,19.67
2023-01-30T04:04:16.882Z,20.10
2023-01-30T04:05:04.144Z,21.17
2023-01-30T04:05:51.099Z,20.45
2023-01-30T04:06:40.416Z,19.30
2023-01-30T04:07:29.973Z,20.95
2023-01-30T04:08:16.975Z,20.77
2023-01-30T04:09:04.089Z,19.48
2023-01-30T04:09:51.183Z,20.42
2023-01-30T04:10:38.260Z,18.80
2023-01-30T04:11:25.356Z,20.15
2023-01-30T04:12:12.281Z,20.88
2023-01-30T04:12:59.239Z,21.02
2023-01-30T04:13:46.297Z,20.92
2023-01-30T04:14:33.446Z,21.30
2023-01-30T04:15:20.656Z,21.70
2023-01-30T04:16:18.340Z,21.25
2023-01-30T04:17:05.482Z,21.90
2023-01-30T04:17:52.567Z,20.48
2023-01-30T04:18:39.562Z,21.92
2023-01-30T04:19:26.567Z,21.37
2023-01-30T04:20:13.874Z,21.02
2023-01-30T04:21:00.895Z,21.00
2023-01-30T04:21:47.990Z,22.77
2023-01-30T04:22:35.111Z,21.25
2023-01-30T04:23:22.187Z,20.70
2023-01-30T04:24:09.321Z,20.67
2023-01-30T04:24:56.494Z,21.62
2023-01-30T04:25:46.931Z,21.12
2023-01-30T04:26:33.926Z,21.52
2023-01-30T04:27:21.028Z,22.13
2023-01-30T04:28:08.164Z,21.35
2023-01-30T04:28:55.145Z,21.10
2023-01-30T04:29:42.787Z,21.50
2023-01-30T04:30:30.121Z,21.30
2023-01-30T04:31:17.345Z,21.17
2023-01-30T04:32:04.698Z,22.20
2023-01-30T04:32:51.850Z,21.25
2023-01-30T04:33:40.348Z,21.17
2023-01-30T04:34:27.448Z,20.88
2023-01-30T04:35:14.550Z,21.08
2023-01-30T04:36:03.347Z,21.92
2023-01-30T04:36:50.453Z,24.58
2023-01-30T04:37:37.589Z,20.98
2023-01-30T04:38:27.056Z,21.40
2023-01-30T04:39:14.024Z,21.70
2023-01-30T04:40:01.075Z,21.77
2023-01-30T04:40:55.494Z,22.25
2023-01-30T04:41:42.422Z,21.55
2023-01-30T04:42:29.389Z,22.20
2023-01-30T04:43:16.499Z,21.83
2023-01-30T04:44:03.633Z,22.73
2023-01-30T04:44:50.700Z,22.15
2023-01-30T04:45:37.641Z,21.65
2023-01-30T04:46:24.696Z,21.40
2023-01-30T04:47:11.811Z,20.55
2023-01-30T04:47:58.881Z,22.42
2023-01-30T04:48:45.925Z,22.37
2023-01-30T04:49:32.935Z,20.67
2023-01-30T04:50:19.931Z,20.90
2023-01-30T04:51:07.404Z,21.48
2023-01-30T04:51:54.419Z,21.05
2023-01-30T04:52:41.507Z,22.62
2023-01-30T04:53:28.484Z,22.95
2023-01-30T04:54:15.482Z,21.55
2023-01-30T04:55:02.489Z,20.77
2023-01-30T04:55:52.723Z,20.30
2023-01-30T04:56:39.768Z,20.37
2023-01-30T04:57:26.789Z,20.65
2023-01-30T04:58:13.941Z,22.55
2023-01-30T04:59:00.942Z,22.52
2023-01-30T04:59:48.055Z,21.40
2023-01-30T05:00:35.152Z,20.83
2023-01-30T05:01:34.214Z,20.80
2023-01-30T05:02:23.033Z,21.95
2023-01-30T05:03:10.862Z,22.90
2023-01-30T05:03:58.103Z,22.20
2023-01-30T05:04:45.047Z,21.37
2023-01-30T05:05:32.043Z,21.10
2023-01-30T05:06:19.184Z,21.90
2023-01-30T05:07:06.350Z,21.95
2023-01-30T05:07:53.580Z,20.50
2023-01-30T05:08:40.626Z,21.45
2023-01-30T05:09:27.548Z,21.85
2023-01-30T05:10:14.465Z,22.37
2023-01-30T05:11:01.591Z,21.45
2023-01-30T05:11:48.565Z,22.73
2023-01-30T05:12:35.607Z,21.52
2023-01-30T05:13:22.698Z,22.08
2023-01-30T05:14:09.882Z,22.73
2023-01-30T05:14:57.058Z,21.83
2023-01-30T05:15:45.580Z,21.98
2023-01-30T05:16:32.636Z,23.27
2023-01-30T05:17:19.684Z,22.00
2023-01-30T05:18:06.609Z,22.85
2023-01-30T05:18:54.078Z,21.62
2023-01-30T05:19:41.127Z,22.33
2023-01-30T05:20:28.333Z,23.45
2023-01-30T05:21:18.313Z,21.77
2023-01-30T05:22:05.442Z,21.00
2023-01-30T05:22:52.740Z,22.70
2023-01-30T05:23:39.991Z,22.42
2023-01-30T05:24:27.047Z,22.48
2023-01-30T05:25:14.249Z,22.85
2023-01-30T05:26:02.271Z,22.02
2023-01-30T05:26:49.363Z,21.92
2023-01-30T05:27:36.392Z,21.10
2023-01-30T05:28:23.391Z,21.58
2023-01-30T05:29:10.874Z,21.65
2023-01-30T05:29:57.926Z,22.50
2023-01-30T05:30:46.390Z,21.70
2023-01-30T05:31:35.848Z,22.20
2023-01-30T05:32:22.895Z,21.77
2023-01-30T05:33:09.980Z,22.45
2023-01-30T05:33:57.054Z,20.88
2023-01-30T05:34:44.188Z,22.60
2023-01-30T05:35:31.265Z,22.42
2023-01-30T05:36:19.812Z,21.70
2023-01-30T05:37:07.099Z,24.45
2023-01-30T05:37:54.111Z,22.08
2023-01-30T05:38:42.555Z,23.08
2023-01-30T05:39:29.583Z,22.37
2023-01-30T05:40:16.790Z,22.02
2023-01-30T05:41:08.100Z,22.65
2023-01-30T05:41:55.174Z,21.70
2023-01-30T05:42:42.136Z,23.27
2023-01-30T05:43:30.207Z,22.52
2023-01-30T05:44:17.317Z,22.58
2023-01-30T05:45:04.680Z,21.83
2023-01-30T05:45:56.222Z,21.42
2023-01-30T05:46:43.382Z,24.30
2023-01-30T05:47:30.381Z,21.12
2023-01-30T05:48:17.293Z,23.65
2023-01-30T05:49:04.549Z,22.13
2023-01-30T05:49:51.536Z,22.92
2023-01-30T05:50:38.866Z,23.58
2023-01-30T05:51:27.462Z,22.70
2023-01-30T05:52:14.432Z,23.67
2023-01-30T05:53:01.358Z,23.52
2023-01-30T05:53:48.672Z,23.17
2023-01-30T05:54:35.828Z,22.08
2023-01-30T05:55:22.803Z,23.75
2023-01-30T05:56:09.909Z,22.77
2023-01-30T05:56:57.022Z,22.83
2023-01-30T05:57:44.090Z,22.15
2023-01-30T05:58:31.647Z,23.05
2023-01-30T05:59:21.309Z,23.27
2023-01-30T06:00:10.843Z,23.75
2023-01-30T06:01:05.500Z,22.65
2023-01-30T06:01:52.619Z,23.65
2023-01-30T06:02:39.853Z,21.83
2023-01-30T06:03:26.856Z,23.67
2023-01-30T06:04:13.783Z,23.60
2023-01-30T06:05:00.902Z,21.52
2023-01-30T06:05:47.971Z,23.58
2023-01-30T06:06:35.189Z,23.10
2023-01-30T06:07:22.218Z,21.48
2023-01-30T06:08:09.212Z,23.23
2023-01-30T06:08:57.038Z,23.17
2023-01-30T06:09:44.036Z,23.67
2023-01-30T06:10:31.142Z,23.27
2023-01-30T06:11:18.635Z,23.65
2023-01-30T06:12:07.233Z,22.95
2023-01-30T06:12:54.341Z,23.23
2023-01-30T06:13:42.319Z,23.02
2023-01-30T06:14:29.504Z,22.65
2023-01-30T06:15:16.806Z,23.33
2023-01-30T06:16:04.326Z,23.27
2023-01-30T06:16:51.524Z,22.77
2023-01-30T06:17:43.423Z,23.50
2023-01-30T06:18:30.463Z,24.70
2023-01-30T06:19:17.521Z,22.50
2023-01-30T06:20:05.125Z,25.25
2023-01-30T06:20:53.499Z,24.73
2023-01-30T06:21:40.542Z,23.87
2023-01-30T06:22:27.579Z,24.02
2023-01-30T06:23:14.775Z,25.02
2023-01-30T06:24:02.636Z,23.83
2023-01-30T06:24:49.772Z,24.65
2023-01-30T06:25:36.838Z,24.77
2023-01-30T06:26:23.853Z,24.98
2023-01-30T06:27:10.983Z,23.50
2023-01-30T06:27:58.075Z,24.05
2023-01-30T06:28:45.284Z,25.00
2023-01-30T06:29:32.224Z,24.30
2023-01-30T06:30:19.436Z,23.67
2023-01-30T06:31:09.721Z,23.48
2023-01-30T06:31:56.724Z,24.52
2023-01-30T06:32:43.771Z,23.85
2023-01-30T06:33:30.957Z,22.80
2023-01-30T06:34:18.002Z,23.87
2023-01-30T06:35:05.664Z,23.02
2023-01-30T06:35:53.180Z,24.77
2023-01-30T06:36:40.454Z,24.70
2023-01-30T06:37:27.480Z,24.15
2023-01-30T06:38:14.592Z,24.27
2023-01-30T06:39:01.876Z,23.70
2023-01-30T06:39:49.061Z,24.60
2023-01-30T06:40:36.053Z,23.70
2023-01-30T06:41:23.070Z,24.25
2023-01-30T06:42:10.141Z,25.27
2023-01-30T06:42:57.114Z,25.30
2023-01-30T06:43:44.123Z,24.08
2023-01-30T06:44:31.236Z,25.00
2023-01-30T06:45:19.876Z,24.15
2023-01-30T06:46:07.240Z,26.12
2023-01-30T06:46:54.460Z,24.60
2023-01-30T06:47:54.623Z,23.80
2023-01-30T06:48:41.549Z,20.73
2023-01-30T06:49:28.957Z,24.70
2023-01-30T06:50:18.172Z,22.60
2023-01-30T06:51:05.267Z,23.45
2023-01-30T06:51:52.187Z,22.80
2023-01-30T06:52:42.994Z,23.52
2023-01-30T06:53:33.054Z,23.17
2023-01-30T06:54:20.039Z,25.02
2023-01-30T06:55:08.506Z,24.00
2023-01-30T06:55:55.557Z,25.58
2023-01-30T06:56:42.535Z,25.20
2023-01-30T06:57:30.028Z,24.40
2023-01-30T06:58:17.146Z,24.27
2023-01-30T06:59:04.189Z,25.20
2023-01-30T06:59:51.185Z,24.98
2023-01-30T07:00:40.545Z,23.65
2023-01-30T07:01:29.016Z,23.92
2023-01-30T07:02:16.168Z,25.65
2023-01-30T07:03:03.359Z,24.58
2023-01-30T07:03:50.425Z,24.65
2023-01-30T07:04:37.383Z,25.95
2023-01-30T07:05:24.543Z,25.33
2023-01-30T07:06:11.654Z,25.92
2023-01-30T07:06:58.827Z,24.70
2023-01-30T07:07:45.820Z,24.25
2023-01-30T07:08:32.908Z,23.67
2023-01-30T07:09:19.899Z,24.27
2023-01-30T07:10:09.176Z,23.08
2023-01-30T07:10:56.623Z,24.05
2023-01-30T07:11:43.544Z,24.35
2023-01-30T07:12:30.637Z,24.05
2023-01-30T07:13:17.738Z,24.25
2023-01-30T07:14:06.361Z,23.27
2023-01-30T07:14:54.612Z,25.15
2023-01-30T07:15:41.813Z,24.27
2023-01-30T07:16:29.596Z,23.45
2023-01-30T07:17:17.563Z,23.98
2023-01-30T07:18:04.538Z,24.35
2023-01-30T07:18:51.700Z,23.50
2023-01-30T07:19:39.301Z,24.85
2023-01-30T07:20:26.380Z,23.92
2023-01-30T07:21:14.043Z,22.70
2023-01-30T07:22:02.473Z,24.05
2023-01-30T07:22:54.668Z,22.67
2023-01-30T07:23:41.855Z,23.83
2023-01-30T07:24:28.878Z,22.08
2023-01-30T07:25:17.025Z,22.65
2023-01-30T07:26:07.403Z,22.90
2023-01-30T07:26:54.445Z,22.33
2023-01-30T07:27:41.443Z,23.08
2023-01-30T07:28:28.404Z,24.48
2023-01-30T07:29:15.726Z,22.58
2023-01-30T07:30:03.025Z,22.62
2023-01-30T07:30:53.131Z,23.23
2023-01-30T07:31:40.427Z,21.83
2023-01-30T07:32:27.472Z,21.42
2023-01-30T07:33:14.518Z,22.83
2023-01-30T07:34:01.598Z,21.90
2023-01-30T07:34:48.899Z,21.73
2023-01-30T07:35:37.298Z,23.50
2023-01-30T07:36:24.851Z,22.42
2023-01-30T07:37:11.846Z,23.62
2023-01-30T07:37:58.829Z,21.95
2023-01-30T07:38:49.435Z,22.70
2023-01-30T07:40:24.673Z,20.83
2023-01-30T07:41:11.670Z,21.60
2023-01-30T07:42:00.961Z,23.12
2023-01-30T07:42:58.888Z,21.00
2023-01-30T07:43:45.794Z,22.10
2023-01-30T07:44:34.170Z,20.95
2023-01-30T07:45:21.339Z,22.15
2023-01-30T07:46:08.410Z,21.62
2023-01-30T07:46:55.509Z,21.65
2023-01-30T07:47:42.633Z,22.00
2023-01-30T07:48:31.051Z,22.83
2023-01-30T07:49:46.701Z,22.87
2023-01-30T07:50:33.603Z,21.00
2023-01-30T07:51:20.542Z,21.62
2023-01-30T07:52:07.404Z,21.27
2023-01-30T07:52:54.341Z,22.42
2023-01-30T07:53:41.203Z,22.37
2023-01-30T07:54:28.172Z,23.17
2023-01-30T07:55:15.250Z,23.52
2023-01-30T07:56:10.396Z,22.45
2023-01-30T07:56:57.352Z,21.60
2023-01-30T07:57:44.297Z,22.33
2023-01-30T07:58:31.220Z,22.60
2023-01-30T07:59:18.213Z,22.80
2023-01-30T08:00:05.693Z,24.40
2023-01-30T08:00:55.558Z,22.10
2023-01-30T08:01:44.442Z,22.13
2023-01-30T08:02:31.368Z,23.48
2023-01-30T08:03:18.632Z,22.52
2023-01-30T08:04:05.660Z,24.00
2023-01-30T08:04:52.631Z,21.83
2023-01-30T08:05:39.541Z,23.70
2023-01-30T08:06:27.142Z,22.85
2023-01-30T08:07:14.047Z,21.48
2023-01-30T08:08:01.189Z,23.52
2023-01-30T08:08:48.129Z,22.65
2023-01-30T08:09:35.114Z,23.62
2023-01-30T08:10:22.045Z,22.30
2023-01-30T08:11:09.491Z,22.87
2023-01-30T08:11:56.405Z,21.87
2023-01-30T08:12:43.654Z,23.45
2023-01-30T08:13:30.589Z,22.35
2023-01-30T08:14:17.570Z,23.58
2023-01-30T08:15:04.861Z,23.12
2023-01-30T08:15:51.751Z,24.48
2023-01-30T08:16:39.229Z,22.05
2023-01-30T08:17:26.241Z,23.92
2023-01-30T08:18:13.239Z,23.55
2023-01-30T08:19:00.342Z,20.90
2023-01-30T08:19:47.223Z,23.27
2023-01-30T08:20:34.263Z,24.05
2023-01-30T08:21:21.203Z,23.95
2023-01-30T08:22:08.055Z,24.12
2023-01-30T08:22:55.085Z,22.98
2023-01-30T08:23:41.937Z,22.30
2023-01-30T08:24:28.831Z,22.77
2023-01-30T08:25:15.836Z,21.15
2023-01-30T08:26:04.906Z,23.20
2023-01-30T08:26:51.871Z,22.83
2023-01-30T08:27:38.766Z,23.02
2023-01-30T08:28:26.059Z,22.83
2023-01-30T08:29:12.937Z,22.85
2023-01-30T08:29:59.854Z,23.75
2023-01-30T08:30:46.749Z,22.75
2023-01-30T08:31:33.739Z,24.27
2023-01-30T08:32:20.644Z,23.38
2023-01-30T08:33:07.678Z,22.67
2023-01-30T08:33:54.617Z,24.12
2023-01-30T08:34:41.528Z,23.52
2023-01-30T08:35:28.477Z,24.30
2023-01-30T08:36:15.375Z,23.30
2023-01-30T08:37:02.895Z,22.60
2023-01-30T08:37:49.728Z,23.48
2023-01-30T08:38:36.648Z,24.02
2023-01-30T08:39:23.852Z,23.50
2023-01-30T08:40:13.599Z,24.83
2023-01-30T08:41:01.286Z,24.05
2023-01-30T08:41:48.400Z,24.17
2023-01-30T08:42:35.445Z,23.85
2023-01-30T08:43:22.375Z,24.10
2023-01-30T08:44:13.167Z,25.42
2023-01-30T08:45:00.188Z,22.98
2023-01-30T08:45:47.058Z,23.62
2023-01-30T08:46:33.983Z,23.98
2023-01-30T08:47:22.402Z,24.58
2023-01-30T08:48:10.347Z,23.87
2023-01-30T08:48:57.201Z,23.85
2023-01-30T08:49:44.095Z,24.20
2023-01-30T08:50:32.151Z,23.17
2023-01-30T08:51:19.101Z,23.27
2023-01-30T08:52:06.011Z,24.25
2023-01-30T08:52:53.006Z,25.05
2023-01-30T08:53:39.860Z,22.67
2023-01-30T08:54:26.859Z,24.55
2023-01-30T08:55:13.722Z,22.90
2023-01-30T08:56:00.584Z,24.55
2023-01-30T08:56:47.527Z,23.15
2023-01-30T08:57:34.413Z,24.52
2023-01-30T08:58:22.047Z,23.10
2023-01-30T08:59:08.996Z,24.98
2023-01-30T08:59:55.883Z,23.92
2023-01-30T09:00:45.851Z,23.50
2023-01-30T09:01:33.996Z,22.02
2023-01-30T09:02:21.043Z,22.87
2023-01-30T09:03:08.008Z,24.08
2023-01-30T09:03:54.843Z,24.12
2023-01-30T09:04:41.783Z,22.20
2023-01-30T09:05:30.175Z,22.23
2023-01-30T09:06:17.094Z,22.92
2023-01-30T09:07:06.107Z,22.30
2023-01-30T09:07:52.951Z,23.48
2023-01-30T09:08:39.901Z,22.30
2023-01-30T09:09:26.969Z,22.25
2023-01-30T09:10:14.016Z,22.35
2023-01-30T09:11:02.409Z,22.13
2023-01-30T09:11:49.321Z,22.23
2023-01-30T09:12:38.326Z,23.42
2023-01-30T09:13:25.707Z,21.73
2023-01-30T09:14:12.602Z,22.00
2023-01-30T09:15:00.645Z,21.90
2023-01-30T09:15:47.486Z,21.40
2023-01-30T09:16:34.496Z,21.95
2023-01-30T09:17:21.912Z,21.75
2023-01-30T09:18:10.880Z,21.27
2023-01-30T09:18:57.709Z,22.15
2023-01-30T09:19:44.650Z,22.15
2023-01-30T09:20:31.573Z,22.25
2023-01-30T09:21:18.488Z,21.77
2023-01-30T09:22:05.618Z,21.33
2023-01-30T09:22:52.637Z,21.42
2023-01-30T09:23:40.005Z,21.55
2023-01-30T09:24:27.963Z,23.00
2023-01-30T09:25:14.986Z,20.48
2023-01-30T09:26:02.597Z,21.23
2023-01-30T09:26:49.537Z,20.80
2023-01-30T09:27:37.190Z,21.60
2023-01-30T09:28:24.158Z,22.13
2023-01-30T09:29:14.422Z,21.65
2023-01-30T09:30:01.337Z,21.85
2023-01-30T09:30:48.329Z,20.95
2023-01-30T09:31:35.282Z,22.45
2023-01-30T09:32:23.676Z,22.13
2023-01-30T09:33:10.997Z,21.00
2023-01-30T09:33:57.875Z,20.85
2023-01-30T09:34:44.834Z,20.60
2023-01-30T09:35:31.759Z,20.95
2023-01-30T09:36:18.640Z,21.90
2023-01-30T09:37:05.557Z,20.62
2023-01-30T09:37:53.742Z,20.27
2023-01-30T09:38:40.644Z,20.73
2023-01-30T09:39:28.365Z,21.55
2023-01-30T09:40:17.984Z,21.27
2023-01-30T09:41:36.931Z,21.27
2023-01-30T09:42:46.384Z,20.37
2023-01-30T09:43:38.916Z,20.23
2023-01-30T09:44:42.134Z,21.55
2023-01-30T09:45:29.251Z,20.52
2023-01-30T09:46:47.256Z,20.75
2023-01-30T09:47:40.799Z,20.10
2023-01-30T09:48:35.240Z,20.08
2023-01-30T09:49:33.934Z,20.35
2023-01-30T09:50:36.409Z,19.17
2023-01-30T09:52:07.694Z,21.20
2023-01-30T09:54:12.763Z,20.50
2023-01-30T09:55:10.328Z,20.83
2023-01-30T09:55:59.320Z,20.98
2023-01-30T09:56:46.637Z,20.15
2023-01-30T09:57:33.763Z,20.27
2023-01-30T09:58:25.150Z,21.40
2023-01-30T09:59:21.941Z,20.55
2023-01-30T10:00:36.188Z,20.95
2023-01-30T10:01:29.717Z,20.08
2023-01-30T10:02:30.491Z,20.08
2023-01-30T10:03:26.169Z,21.15
2023-01-30T10:04:25.585Z,19.58
2023-01-30T10:05:13.017Z,20.17
2023-01-30T10:06:06.351Z,21.45
2023-01-30T10:07:15.416Z,20.62
2023-01-30T10:08:20.683Z,20.00
2023-01-30T10:09:29.517Z,20.85
2023-01-30T10:10:35.464Z,20.30
2023-01-30T10:11:48.082Z,20.02
2023-01-30T10:13:12.605Z,20.45
2023-01-30T10:14:14.723Z,20.25
2023-01-30T10:15:15.054Z,20.67
2023-01-30T10:16:12.607Z,20.08
2023-01-30T10:17:33.192Z,21.55
2023-01-30T10:18:44.644Z,20.08
2023-01-30T10:19:57.728Z,20.15
2023-01-30T10:21:09.720Z,20.48
2023-01-30T10:22:02.990Z,19.12
2023-01-30T10:23:13.145Z,20.62
2023-01-30T10:24:20.587Z,19.77
2023-01-30T10:25:13.742Z,20.75
2023-01-30T10:26:12.047Z,20.08
2023-01-30T10:26:58.989Z,20.80
2023-01-30T10:27:56.191Z,20.02
2023-01-30T10:29:06.770Z,21.37
2023-01-30T10:29:59.576Z,20.52
2023-01-30T10:30:48.765Z,20.50
2023-01-30T10:31:48.308Z,20.65
2023-01-30T10:32:46.824Z,19.95
2023-01-30T10:33:37.982Z,19.85
2023-01-30T10:34:38.012Z,21.83
2023-01-30T10:35:30.598Z,21.12
2023-01-30T10:36:25.646Z,20.45
2023-01-30T10:37:36.669Z,20.37
2023-01-30T10:39:26.279Z,18.60
2023-01-30T10:40:13.168Z,20.08
2023-01-30T10:41:27.187Z,19.62
2023-01-30T10:42:20.132Z,19.58
2023-01-30T10:43:37.248Z,20.55
2023-01-30T10:44:24.425Z,19.65
2023-01-30T10:45:20.685Z,19.98
2023-01-30T10:46:10.828Z,19.40
2023-01-30T10:47:13.060Z,19.75
2023-01-30T10:48:26.453Z,20.58
2023-01-30T10:49:39.532Z,19.40
2023-01-30T10:50:51.401Z,19.45
2023-01-30T10:52:01.585Z,19.83
2023-01-30T10:53:05.572Z,20.83
2023-01-30T10:53:58.032Z,20.58
2023-01-30T10:55:19.892Z,21.25
2023-01-30T10:56:34.934Z,19.73